This is the latest recevied weather packets stored in our database for station/object KI7JYE. If no packets are shown the sender has not sent any weather packets the latest 10 day(s).
| Time | Temp. | Humidity | Pressure | Rain* | Wind** | Luminosity | Snow |
|---|---|---|---|---|---|---|---|
| 1777866774 | 22.78° C | 52% | 1005.7 hPa | 0 mm | - | 0 W/m² | - |
| 1777866471 | 22.78° C | 53% | 1005.6 hPa | 0 mm | - | 0 W/m² | - |
| 1777866169 | 22.78° C | 53% | 1005.6 hPa | 0 mm | - | 0 W/m² | - |
| 1777865866 | 22.22° C | 57% | 1005.7 hPa | 0 mm | - | 0 W/m² | - |
| 1777865563 | 22.78° C | 55% | 1005.7 hPa | 0 mm | - | 0 W/m² | - |
| 1777865260 | 23.33° C | 53% | 1005.5 hPa | 0 mm | - | 0 W/m² | - |
| 1777864957 | 23.33° C | 52% | 1005.6 hPa | 0 mm | - | 1 W/m² | - |
| 1777864654 | 23.89° C | 53% | 1005.4 hPa | 0 mm | - | 3 W/m² | - |
| 1777864352 | 23.89° C | 52% | 1005.4 hPa | 0 mm | - | 6 W/m² | - |
| 1777864047 | 25° C | 50% | 1005.3 hPa | 0 mm | - | 8 W/m² | - |
| 1777863745 | 25.56° C | 47% | 1005.3 hPa | 0 mm | - | 11 W/m² | - |
| 1777863441 | 26.11° C | 44% | 1005.4 hPa | 0 mm | - | 13 W/m² | - |
| 1777863138 | 27.22° C | 42% | 1005.2 hPa | 0 mm | - | 16 W/m² | - |
| 1777862835 | 27.78° C | 38% | 1005.2 hPa | 0 mm | - | 19 W/m² | - |
| 1777862531 | 28.89° C | 34% | 1005.1 hPa | 0 mm | - | 22 W/m² | - |
| 1777862228 | 29.44° C | 31% | 1004.9 hPa | 0 mm | - | 25 W/m² | - |
| 1777861924 | 30.56° C | 30% | 1005 hPa | 0 mm | - | 29 W/m² | - |
| 1777861621 | 30.56° C | 29% | 1004.9 hPa | 0 mm | - | 32 W/m² | - |
| 1777861316 | 30.56° C | 30% | 1005.1 hPa | 0 mm | - | 37 W/m² | - |
| 1777861015 | 31.11° C | 27% | 1005.3 hPa | 0 mm | - | 40 W/m² | - |
| 1777860711 | 31.67° C | 25% | 1005 hPa | 0 mm | - | 44 W/m² | - |
| 1777860408 | 31.67° C | 25% | 1005.1 hPa | 0 mm | - | 47 W/m² | - |
| 1777860104 | 31.67° C | 25% | 1005.1 hPa | 0 mm | - | 49 W/m² | - |
| 1777859801 | 31.67° C | 26% | 1005.3 hPa | 0 mm | - | 51 W/m² | - |
| 1777859497 | 31.67° C | 25% | 1005.3 hPa | 0 mm | - | 55 W/m² | - |
* Rain latest hour (hover to see other rain measurements)
** Current wind speed in m/s (hover to see current wind gust speed)